createdAt,value
2022-07-29T00:01:42.291Z,98058.09
2022-07-29T00:04:09.801Z,98054.72
2022-07-29T00:06:37.728Z,98057.28
2022-07-29T00:09:05.578Z,98050.94
2022-07-29T00:11:32.568Z,98041.63
2022-07-29T00:13:59.806Z,98040.34
2022-07-29T00:16:28.892Z,98033.56
2022-07-29T00:18:56.289Z,98034.38
2022-07-29T00:21:23.283Z,98043.91
2022-07-29T00:23:51.083Z,98039.44
2022-07-29T00:26:18.257Z,98038.16
2022-07-29T00:28:46.066Z,98040.88
2022-07-29T00:31:13.856Z,98034.13
2022-07-29T00:33:41.161Z,98037.28
2022-07-29T00:36:08.179Z,98037.03
2022-07-29T00:38:36.298Z,98033.84
2022-07-29T00:41:03.267Z,98036.59
2022-07-29T00:43:31.586Z,98040.44
2022-07-29T00:45:58.777Z,98039.78
2022-07-29T00:48:26.021Z,98035.78
2022-07-29T00:50:53.266Z,98031.13
2022-07-29T00:53:21.655Z,98038.34
2022-07-29T00:55:49.067Z,98035.16
2022-07-29T00:58:16.518Z,98035.16
2022-07-29T01:00:44.945Z,98037.03
2022-07-29T01:03:14.418Z,98041.91
2022-07-29T01:05:50.260Z,98039.63
2022-07-29T01:08:18.946Z,98040.25
2022-07-29T01:10:47.910Z,98049.41
2022-07-29T01:13:16.812Z,98041.78
2022-07-29T01:15:53.740Z,98051.72
2022-07-29T01:18:45.626Z,98056.38
2022-07-29T01:21:34.934Z,98048.56
2022-07-29T01:24:23.390Z,98051.75
2022-07-29T01:27:18.722Z,98054.31
2022-07-29T01:29:59.901Z,98064.69
2022-07-29T01:32:36.850Z,98051.97
2022-07-29T01:35:26.641Z,98045.88
2022-07-29T01:37:57.357Z,98044.63
2022-07-29T01:40:57.417Z,98045.66
2022-07-29T01:44:02.556Z,98042.28
2022-07-29T01:46:36.964Z,98044.41
2022-07-29T01:49:12.415Z,98035.97
2022-07-29T01:51:49.659Z,98031.09
2022-07-29T01:54:22.470Z,98028.97
2022-07-29T01:56:52.667Z,98025.59
2022-07-29T01:59:21.624Z,98026.03
2022-07-29T02:01:51.374Z,98021.41
2022-07-29T02:04:26.662Z,98018.66
2022-07-29T02:07:02.839Z,98022.03
2022-07-29T02:09:33.011Z,98032.44
2022-07-29T02:12:02.463Z,98033.06
2022-07-29T02:14:34.757Z,98034.97
2022-07-29T02:17:03.170Z,98037.09
2022-07-29T02:19:33.276Z,98038.75
2022-07-29T02:22:02.539Z,98037.72
2022-07-29T02:24:32.749Z,98039.41
2022-07-29T02:27:01.995Z,98035.78
2022-07-29T02:29:32.162Z,98028.63
2022-07-29T02:32:03.731Z,98033.50
2022-07-29T02:34:32.078Z,98037.50
2022-07-29T02:37:00.370Z,98036.25
2022-07-29T02:39:30.636Z,98032.66
2022-07-29T02:42:04.173Z,98032.25
2022-07-29T02:44:34.935Z,98038.34
2022-07-29T02:47:16.746Z,98040.25
2022-07-29T02:49:56.987Z,98031.41
2022-07-29T02:52:27.714Z,98037.09
2022-07-29T02:55:01.190Z,98033.09
2022-07-29T02:57:55.034Z,98033.31
2022-07-29T03:00:29.706Z,98037.72
2022-07-29T03:03:00.577Z,98049.31
2022-07-29T03:05:28.845Z,98053.56
2022-07-29T03:08:05.862Z,98049.94
2022-07-29T03:10:34.281Z,98054.13
2022-07-29T03:13:01.952Z,98056.25
2022-07-29T03:15:30.114Z,98055.63
2022-07-29T03:17:57.764Z,98061.50
2022-07-29T03:20:25.585Z,98067.00
2022-07-29T03:22:53.038Z,98061.91
2022-07-29T03:25:21.534Z,98060.66
2022-07-29T03:27:49.486Z,98065.31
2022-07-29T03:30:18.348Z,98057.91
2022-07-29T03:32:52.032Z,98066.13
2022-07-29T03:35:22.474Z,98074.78
2022-07-29T03:37:50.704Z,98076.66
2022-07-29T03:40:47.654Z,98084.25
2022-07-29T03:43:19.384Z,98078.34
2022-07-29T03:45:50.926Z,98082.59
2022-07-29T03:48:22.701Z,98088.06
2022-07-29T03:50:51.788Z,98081.72
2022-07-29T03:53:19.321Z,98085.13
2022-07-29T03:55:49.994Z,98091.88
2022-07-29T03:58:19.338Z,98085.75
2022-07-29T04:00:47.344Z,98082.16
2022-07-29T04:03:15.957Z,98087.44
2022-07-29T04:05:43.290Z,98087.25
2022-07-29T04:08:10.732Z,98086.59
2022-07-29T04:10:39.626Z,98087.03
2022-07-29T04:13:06.973Z,98085.38
2022-07-29T04:15:34.772Z,98084.72
2022-07-29T04:18:03.038Z,98091.53
2022-07-29T04:20:30.099Z,98087.31
2022-07-29T04:22:57.840Z,98079.72
2022-07-29T04:25:25.295Z,98090.28
2022-07-29T04:28:01.704Z,98083.94
2022-07-29T04:30:31.662Z,98090.28
2022-07-29T04:32:58.824Z,98091.13
2022-07-29T04:35:26.317Z,98097.47
2022-07-29T04:37:54.071Z,98091.56
2022-07-29T04:40:21.583Z,98092.00
2022-07-29T04:42:49.452Z,98100.88
2022-07-29T04:45:22.311Z,98088.59
2022-07-29T04:47:50.810Z,98085.63
2022-07-29T04:50:18.251Z,98087.34
2022-07-29T04:52:45.611Z,98088.81
2022-07-29T04:55:12.969Z,98088.16
2022-07-29T04:57:41.117Z,98097.25
2022-07-29T05:00:09.301Z,98097.91
2022-07-29T05:02:37.435Z,98096.84
2022-07-29T05:05:05.503Z,98099.56
2022-07-29T05:07:33.696Z,98106.75
2022-07-29T05:10:00.671Z,98100.41
2022-07-29T05:12:29.047Z,98107.56
2022-07-29T05:14:56.268Z,98110.09
2022-07-29T05:17:23.732Z,98107.34
2022-07-29T05:19:53.008Z,98110.72
2022-07-29T05:22:21.248Z,98104.13
2022-07-29T05:24:48.242Z,98102.38
2022-07-29T05:27:16.470Z,98107.47
2022-07-29T05:29:45.752Z,98104.06
2022-07-29T05:32:18.682Z,98101.91
2022-07-29T05:34:50.313Z,98100.16
2022-07-29T05:37:23.175Z,98113.69
2022-07-29T05:39:56.381Z,98114.72
2022-07-29T05:42:25.969Z,98115.28
2022-07-29T05:44:55.103Z,98113.34
2022-07-29T05:47:23.022Z,98120.91
2022-07-29T05:49:50.343Z,98118.34
2022-07-29T05:52:18.299Z,98114.53
2022-07-29T05:54:45.820Z,98121.97
2022-07-29T05:57:22.079Z,98130.84
2022-07-29T05:59:50.794Z,98121.06
2022-07-29T06:02:18.387Z,98121.03
2022-07-29T06:04:46.136Z,98127.41
2022-07-29T06:07:13.608Z,98123.13
2022-07-29T06:09:40.905Z,98123.09
2022-07-29T06:12:07.955Z,98115.44
2022-07-29T06:14:37.091Z,98125.53
2022-07-29T06:17:04.106Z,98133.00
2022-07-29T06:19:31.538Z,98128.59
2022-07-29T06:21:58.911Z,98139.94
2022-07-29T06:24:26.125Z,98134.75
2022-07-29T06:26:53.089Z,98125.69
2022-07-29T06:29:20.944Z,98124.94
2022-07-29T06:31:48.076Z,98128.00
2022-07-29T06:34:15.663Z,98121.56
2022-07-29T06:36:43.263Z,98122.75
2022-07-29T06:39:11.745Z,98125.53
2022-07-29T06:41:39.381Z,98131.50
2022-07-29T06:44:10.763Z,98128.66
2022-07-29T06:46:38.064Z,98120.91
2022-07-29T06:49:05.962Z,98123.09
2022-07-29T06:51:33.598Z,98122.03
2022-07-29T06:54:03.370Z,98119.56
2022-07-29T06:56:39.352Z,98117.09
2022-07-29T06:59:11.957Z,98119.72
2022-07-29T07:01:44.051Z,98116.72
2022-07-29T07:04:12.574Z,98120.47
2022-07-29T07:06:39.688Z,98118.44
2022-07-29T07:09:07.505Z,98114.72
2022-07-29T07:11:35.753Z,98110.38
2022-07-29T07:14:04.238Z,98111.59
2022-07-29T07:16:32.660Z,98114.22
2022-07-29T07:19:00.700Z,98104.19
2022-07-29T07:21:30.228Z,98109.72
2022-07-29T07:23:58.531Z,98105.25
2022-07-29T07:26:26.838Z,98098.75
2022-07-29T07:28:54.582Z,98112.06
2022-07-29T07:31:21.706Z,98108.81
2022-07-29T07:33:49.615Z,98106.88
2022-07-29T07:36:16.805Z,98104.81
2022-07-29T07:38:44.184Z,98107.34
2022-07-29T07:41:11.039Z,98103.13
2022-07-29T07:43:38.693Z,98108.53
2022-07-29T07:46:05.969Z,98103.22
2022-07-29T07:48:35.850Z,98103.56
2022-07-29T07:51:03.488Z,98099.66
2022-07-29T07:53:31.542Z,98108.19
2022-07-29T07:56:10.534Z,98098.72
2022-07-29T07:58:40.078Z,98104.50
2022-07-29T08:01:07.463Z,98101.50
2022-07-29T08:03:37.507Z,98098.69
2022-07-29T08:06:04.998Z,98105.53
2022-07-29T08:08:32.371Z,98087.88
2022-07-29T08:11:04.311Z,98096.56
2022-07-29T08:13:35.533Z,98091.19
2022-07-29T08:16:03.034Z,98097.31
2022-07-29T08:18:32.030Z,98090.50
2022-07-29T08:20:59.616Z,98091.00
2022-07-29T08:23:45.540Z,98098.56
2022-07-29T08:26:16.498Z,98092.84
2022-07-29T08:28:50.704Z,98086.41
2022-07-29T08:31:18.371Z,98085.38
2022-07-29T08:33:45.352Z,98088.50
2022-07-29T08:36:14.349Z,98088.84
2022-07-29T08:38:41.293Z,98082.34
2022-07-29T08:41:08.469Z,98085.97
2022-07-29T08:43:38.650Z,98080.91
2022-07-29T08:46:06.349Z,98088.09
2022-07-29T08:48:34.204Z,98083.44
2022-07-29T08:51:04.414Z,98077.50
2022-07-29T08:53:31.851Z,98080.16
2022-07-29T08:56:01.336Z,98086.94
2022-07-29T08:58:32.373Z,98079.50
2022-07-29T09:01:07.543Z,98078.25
2022-07-29T09:03:40.103Z,98082.41
2022-07-29T09:06:07.874Z,98066.94
2022-07-29T09:08:36.117Z,98071.81
2022-07-29T09:11:05.330Z,98073.69
2022-07-29T09:13:35.511Z,98064.25
2022-07-29T09:16:09.065Z,98069.03
2022-07-29T09:18:43.824Z,98057.66
2022-07-29T09:21:33.147Z,98059.63
2022-07-29T09:24:12.366Z,98058.03
2022-07-29T09:26:46.935Z,98056.78
2022-07-29T09:29:16.243Z,98051.03
2022-07-29T09:31:46.137Z,98045.34
2022-07-29T09:34:15.588Z,98047.00
2022-07-29T09:36:45.192Z,98037.13
2022-07-29T09:39:13.897Z,98047.44
2022-07-29T09:41:56.140Z,98042.00
2022-07-29T09:44:24.453Z,98043.72
2022-07-29T09:47:09.470Z,98035.41
2022-07-29T09:49:53.718Z,98036.00
2022-07-29T09:52:21.473Z,98025.47
2022-07-29T09:54:48.915Z,98018.28
2022-07-29T09:57:31.360Z,98025.56
2022-07-29T10:00:19.525Z,98012.25
2022-07-29T10:02:48.705Z,98006.19
2022-07-29T10:05:24.890Z,98005.13
2022-07-29T10:07:57.437Z,98005.09
2022-07-29T10:10:29.132Z,97998.91
2022-07-29T10:13:01.778Z,97995.38
2022-07-29T10:15:42.076Z,97993.75
2022-07-29T10:18:10.003Z,97991.25
2022-07-29T10:20:37.649Z,97984.88
2022-07-29T10:23:06.027Z,97987.13
2022-07-29T10:25:33.232Z,97978.78
2022-07-29T10:28:00.603Z,97981.88
2022-07-29T10:30:28.602Z,97976.88
2022-07-29T10:33:33.563Z,97971.28
2022-07-29T10:36:12.316Z,97969.06
2022-07-29T10:38:46.005Z,97962.41
2022-07-29T10:41:32.126Z,97956.25
2022-07-29T10:44:19.385Z,97953.75
2022-07-29T10:46:52.584Z,97951.25
2022-07-29T10:49:25.792Z,97954.31
2022-07-29T10:51:58.229Z,97945.69
2022-07-29T10:54:39.655Z,97949.31
2022-07-29T10:57:54.448Z,97944.53
2022-07-29T11:00:18.682Z,97941.69
2022-07-29T11:02:50.255Z,97941.13
2022-07-29T11:05:20.477Z,97936.91
2022-07-29T11:08:16.204Z,97935.44
2022-07-29T11:10:49.948Z,97927.28
2022-07-29T11:13:46.471Z,97927.47
2022-07-29T11:16:16.183Z,97925.75
2022-07-29T11:19:13.381Z,97923.59
2022-07-29T11:21:54.070Z,97919.66
2022-07-29T11:24:32.460Z,97917.16
2022-07-29T11:27:11.009Z,97915.59
2022-07-29T11:30:01.247Z,97910.22
2022-07-29T11:32:39.086Z,97906.56
2022-07-29T11:35:38.452Z,97892.66
2022-07-29T11:38:28.636Z,97897.06
2022-07-29T11:41:22.298Z,97889.19
2022-07-29T11:43:56.064Z,97891.41
2022-07-29T11:46:48.376Z,97878.97
2022-07-29T11:49:32.365Z,97887.25
2022-07-29T11:52:04.944Z,97881.91
2022-07-29T11:54:57.537Z,97884.84
2022-07-29T11:57:36.057Z,97875.72
2022-07-29T12:00:12.201Z,97877.31
2022-07-29T12:02:48.126Z,97884.41
2022-07-29T12:05:22.163Z,97887.09
2022-07-29T12:08:17.437Z,97868.59
2022-07-29T12:10:44.638Z,97881.31
2022-07-29T12:13:12.548Z,97876.19
2022-07-29T12:15:45.860Z,97875.88
2022-07-29T12:18:19.125Z,97872.28
2022-07-29T12:20:49.101Z,97866.28
2022-07-29T12:23:17.457Z,97862.59
2022-07-29T12:25:50.021Z,97853.53
2022-07-29T12:28:26.982Z,97863.00
2022-07-29T12:30:55.822Z,97853.59
2022-07-29T12:33:24.671Z,97849.63
2022-07-29T12:36:06.079Z,97845.31
2022-07-29T12:38:35.918Z,97836.53
2022-07-29T12:41:06.450Z,97833.53
2022-07-29T12:43:33.835Z,97830.66
2022-07-29T12:46:15.126Z,97833.38
2022-07-29T12:48:44.944Z,97832.69
2022-07-29T12:54:51.558Z,97813.06
2022-07-29T12:57:20.507Z,97814.25
2022-07-29T13:00:05.141Z,97815.19
2022-07-29T13:02:33.043Z,97808.53
2022-07-29T13:05:02.040Z,97802.88
2022-07-29T13:07:54.418Z,97805.81
2022-07-29T13:10:23.956Z,97804.78
2022-07-29T13:13:15.836Z,97810.38
2022-07-29T13:15:48.131Z,97808.41
2022-07-29T13:18:33.100Z,97797.44
2022-07-29T13:21:15.345Z,97794.72
2022-07-29T13:23:43.744Z,97794.97
2022-07-29T13:26:12.871Z,97802.63
2022-07-29T13:28:41.035Z,97793.72
2022-07-29T13:31:11.994Z,97789.44
2022-07-29T13:33:39.041Z,97781.44
2022-07-29T13:36:06.624Z,97787.22
2022-07-29T13:38:34.192Z,97780.84
2022-07-29T13:41:03.196Z,97780.03
2022-07-29T13:43:30.350Z,97777.19
2022-07-29T13:45:58.976Z,97776.16
2022-07-29T13:48:25.993Z,97773.44
2022-07-29T13:50:53.683Z,97772.09
2022-07-29T13:53:26.995Z,97773.69
2022-07-29T13:55:54.986Z,97774.81
2022-07-29T13:58:22.775Z,97776.28
2022-07-29T14:00:50.125Z,97772.88
2022-07-29T14:03:17.145Z,97773.50
2022-07-29T14:05:44.656Z,97764.41
2022-07-29T14:08:11.739Z,97761.00
2022-07-29T14:10:39.161Z,97763.63
2022-07-29T14:13:06.399Z,97763.69
2022-07-29T14:15:52.321Z,97760.00
2022-07-29T14:18:19.729Z,97759.25
2022-07-29T14:20:47.397Z,97761.91
2022-07-29T14:23:14.506Z,97757.53
2022-07-29T14:25:44.492Z,97756.97
2022-07-29T14:28:11.676Z,97757.03
2022-07-29T14:30:43.575Z,97753.94
2022-07-29T14:33:11.747Z,97752.41
2022-07-29T14:35:39.241Z,97751.44
2022-07-29T14:38:06.343Z,97750.63
2022-07-29T14:40:34.421Z,97757.56
2022-07-29T14:43:01.455Z,97751.78
2022-07-29T14:45:29.357Z,97745.84
2022-07-29T14:47:58.302Z,97742.91
2022-07-29T14:50:31.413Z,97746.16
2022-07-29T14:53:01.513Z,97738.22
2022-07-29T14:55:28.561Z,97740.78
2022-07-29T14:58:07.741Z,97744.84
2022-07-29T15:00:38.955Z,97740.28
2022-07-29T15:03:06.608Z,97733.94
2022-07-29T15:05:40.695Z,97733.38
2022-07-29T15:08:09.242Z,97726.09
2022-07-29T15:10:37.154Z,97737.63
2022-07-29T15:13:04.154Z,97730.38
2022-07-29T15:15:31.419Z,97726.34
2022-07-29T15:17:58.617Z,97721.78
2022-07-29T15:20:28.130Z,97722.94
2022-07-29T15:22:59.223Z,97713.00
2022-07-29T15:25:28.564Z,97727.94
2022-07-29T15:28:00.984Z,97716.25
2022-07-29T15:30:32.748Z,97710.47
2022-07-29T15:33:02.533Z,97713.84
2022-07-29T15:35:29.819Z,97699.84
2022-07-29T15:37:57.218Z,97716.50
2022-07-29T15:40:24.438Z,97708.88
2022-07-29T15:42:52.344Z,97704.41
2022-07-29T15:45:19.353Z,97703.72
2022-07-29T15:47:47.533Z,97698.56
2022-07-29T15:50:17.609Z,97700.56
2022-07-29T15:52:44.972Z,97698.47
2022-07-29T15:55:12.976Z,97696.38
2022-07-29T15:57:40.988Z,97695.38
2022-07-29T16:00:09.533Z,97686.53
2022-07-29T16:02:36.810Z,97699.81
2022-07-29T16:05:04.130Z,97695.72
2022-07-29T16:07:38.988Z,97698.50
2022-07-29T16:10:08.007Z,97696.97
2022-07-29T16:12:36.141Z,97690.50
2022-07-29T16:15:07.719Z,97690.34
2022-07-29T16:17:38.124Z,97686.56
2022-07-29T16:20:07.284Z,97694.13
2022-07-29T16:22:34.611Z,97684.50
2022-07-29T16:25:01.569Z,97695.31
2022-07-29T16:27:35.641Z,97694.09
2022-07-29T16:30:08.587Z,97689.75
2022-07-29T16:32:36.275Z,97691.78
2022-07-29T16:35:05.441Z,97688.00
2022-07-29T16:37:37.510Z,97682.28
2022-07-29T16:40:06.409Z,97693.44
2022-07-29T16:42:46.674Z,97692.09
2022-07-29T16:45:17.431Z,97693.50
2022-07-29T16:47:47.136Z,97693.38
2022-07-29T16:50:14.480Z,97691.88
2022-07-29T16:52:42.212Z,97687.09
2022-07-29T16:55:09.325Z,97680.84
2022-07-29T16:57:36.862Z,97685.44
2022-07-29T17:00:05.603Z,97683.06
2022-07-29T17:02:33.052Z,97687.41
2022-07-29T17:04:59.995Z,97679.91
2022-07-29T17:07:31.816Z,97676.50
2022-07-29T17:10:03.607Z,97677.84
2022-07-29T17:12:33.241Z,97685.47
2022-07-29T17:15:00.724Z,97685.13
2022-07-29T17:17:38.768Z,97675.13
2022-07-29T17:20:17.614Z,97675.97
2022-07-29T17:22:44.791Z,97682.88
2022-07-29T17:25:20.664Z,97681.81
2022-07-29T17:27:51.242Z,97688.31
2022-07-29T17:30:19.014Z,97681.25
2022-07-29T17:32:46.313Z,97685.00
2022-07-29T17:35:32.292Z,97684.16
2022-07-29T17:37:59.553Z,97690.41
2022-07-29T17:40:26.686Z,97678.28
2022-07-29T17:42:54.658Z,97689.19
2022-07-29T17:45:21.873Z,97684.88
2022-07-29T17:47:49.630Z,97680.25
2022-07-29T17:50:16.829Z,97686.97
2022-07-29T17:52:44.160Z,97693.47
2022-07-29T17:55:13.362Z,97694.91
2022-07-29T17:57:40.846Z,97699.63
2022-07-29T18:00:09.302Z,97691.28
2022-07-29T18:02:37.783Z,97698.06
2022-07-29T18:05:05.714Z,97698.47
2022-07-29T18:07:33.196Z,97701.69
2022-07-29T18:10:00.844Z,97701.44
2022-07-29T18:12:28.966Z,97704.38
2022-07-29T18:14:55.953Z,97707.28
2022-07-29T18:17:23.255Z,97710.19
2022-07-29T18:20:11.460Z,97712.22
2022-07-29T18:22:38.491Z,97707.22
2022-07-29T18:25:06.804Z,97714.19
2022-07-29T18:27:34.162Z,97718.13
2022-07-29T18:30:04.844Z,97727.25
2022-07-29T18:32:32.417Z,97727.22
2022-07-29T18:35:03.058Z,97720.81
2022-07-29T18:38:00.276Z,97732.16
2022-07-29T18:40:21.526Z,97727.38
2022-07-29T18:42:48.478Z,97744.03
2022-07-29T18:45:19.062Z,97742.00
2022-07-29T18:47:49.439Z,97745.19
2022-07-29T18:50:16.938Z,97743.38
2022-07-29T18:52:46.442Z,97745.28
2022-07-29T18:55:14.894Z,97752.19
2022-07-29T18:57:55.988Z,97757.00
2022-07-29T19:00:25.306Z,97764.09
2022-07-29T19:02:53.197Z,97764.59
2022-07-29T19:05:21.131Z,97774.22
2022-07-29T19:07:48.192Z,97769.44
2022-07-29T19:10:16.204Z,97768.25
2022-07-29T19:12:43.167Z,97777.38
2022-07-29T19:15:11.024Z,97772.59
2022-07-29T19:17:39.098Z,97771.13
2022-07-29T19:20:07.965Z,97774.41
2022-07-29T19:22:35.160Z,97776.81
2022-07-29T19:25:02.877Z,97779.50
2022-07-29T19:27:29.891Z,97780.56
2022-07-29T19:29:59.374Z,97772.38
2022-07-29T19:32:27.707Z,97777.84
2022-07-29T19:35:13.737Z,97788.03
2022-07-29T19:37:41.395Z,97786.22
2022-07-29T19:40:10.093Z,97790.84
2022-07-29T19:42:37.407Z,97793.22
2022-07-29T19:45:05.031Z,97789.78
2022-07-29T19:47:32.314Z,97797.44
2022-07-29T19:50:00.641Z,97793.53
2022-07-29T19:52:30.539Z,97791.75
2022-07-29T19:54:57.625Z,97795.03
2022-07-29T19:57:25.623Z,97806.28
2022-07-29T19:59:54.192Z,97791.50
2022-07-29T20:02:21.514Z,97795.97
2022-07-29T20:04:51.469Z,97799.56
2022-07-29T20:07:19.607Z,97791.78
2022-07-29T20:09:47.071Z,97799.22
2022-07-29T20:12:14.328Z,97800.22
2022-07-29T20:14:41.945Z,97800.22
2022-07-29T20:17:09.262Z,97801.22
2022-07-29T20:19:36.277Z,97803.41
2022-07-29T20:22:04.850Z,97805.00
2022-07-29T20:24:31.952Z,97807.59
2022-07-29T20:26:59.637Z,97815.22
2022-07-29T20:29:27.642Z,97813.84
2022-07-29T20:31:56.573Z,97808.72
2022-07-29T20:34:23.983Z,97812.75
2022-07-29T20:36:51.727Z,97814.44
2022-07-29T20:39:21.089Z,97823.75
2022-07-29T20:41:49.592Z,97821.47
2022-07-29T20:44:19.947Z,97821.94
2022-07-29T20:46:48.974Z,97822.19
2022-07-29T20:49:16.243Z,97826.28
2022-07-29T20:51:44.273Z,97813.19
2022-07-29T20:54:11.975Z,97818.97
2022-07-29T20:56:39.577Z,97826.06
2022-07-29T20:59:06.865Z,97828.59
2022-07-29T21:01:34.435Z,97828.34
2022-07-29T21:04:02.929Z,97834.13
2022-07-29T21:06:31.037Z,97837.25
2022-07-29T21:08:59.773Z,97840.13
2022-07-29T21:11:44.068Z,97842.81
2022-07-29T21:14:29.930Z,97848.19
2022-07-29T21:16:57.455Z,97830.53
2022-07-29T21:19:24.600Z,97836.66
2022-07-29T21:21:52.365Z,97839.09
2022-07-29T21:24:19.384Z,97844.59
2022-07-29T21:26:54.483Z,97837.63
2022-07-29T21:29:27.905Z,97847.63
2022-07-29T21:31:54.927Z,97846.03
2022-07-29T21:34:24.657Z,97854.06
2022-07-29T21:36:51.902Z,97850.47
2022-07-29T21:39:20.252Z,97849.91
2022-07-29T21:41:47.344Z,97849.91
2022-07-29T21:44:15.100Z,97853.72
2022-07-29T21:46:42.125Z,97857.53
2022-07-29T21:49:09.431Z,97854.19
2022-07-29T21:51:36.710Z,97859.31
2022-07-29T21:54:04.565Z,97861.13
2022-07-29T21:56:31.642Z,97862.38
2022-07-29T21:58:59.125Z,97867.47
2022-07-29T22:01:26.370Z,97860.88
2022-07-29T22:03:54.040Z,97856.53
2022-07-29T22:06:21.559Z,97856.41
2022-07-29T22:08:48.919Z,97852.78
2022-07-29T22:11:16.192Z,97861.94
2022-07-29T22:13:43.478Z,97855.56
2022-07-29T22:16:15.107Z,97860.47
2022-07-29T22:18:45.757Z,97857.25
2022-07-29T22:21:14.934Z,97856.78
2022-07-29T22:23:41.926Z,97868.41
2022-07-29T22:26:09.672Z,97864.22
2022-07-29T22:28:36.698Z,97864.72
2022-07-29T22:31:05.109Z,97861.56
2022-07-29T22:33:32.920Z,97863.97
2022-07-29T22:36:00.346Z,97857.25
2022-07-29T22:38:27.403Z,97857.50
2022-07-29T22:41:00.689Z,97860.63
2022-07-29T22:43:29.004Z,97866.03
2022-07-29T22:45:56.353Z,97870.69
2022-07-29T22:48:23.988Z,97872.63
2022-07-29T22:50:51.007Z,97870.94
2022-07-29T22:53:18.623Z,97869.84
2022-07-29T22:55:45.840Z,97866.28
2022-07-29T22:58:13.299Z,97865.41
2022-07-29T23:00:41.341Z,97862.56
2022-07-29T23:03:08.645Z,97871.28
2022-07-29T23:05:35.813Z,97882.19
2022-07-29T23:08:03.884Z,97874.00
2022-07-29T23:10:31.164Z,97877.00
2022-07-29T23:12:58.502Z,97885.03
2022-07-29T23:15:26.345Z,97882.88
2022-07-29T23:17:54.300Z,97883.34
2022-07-29T23:20:23.795Z,97871.59
2022-07-29T23:22:51.614Z,97868.69
2022-07-29T23:25:19.104Z,97859.91
2022-07-29T23:27:46.268Z,97862.91
2022-07-29T23:30:15.329Z,97864.13
2022-07-29T23:32:42.385Z,97850.72
2022-07-29T23:35:10.293Z,97854.44
2022-07-29T23:37:38.540Z,97862.25
2022-07-29T23:40:08.720Z,97854.56
2022-07-29T23:42:40.052Z,97863.91
2022-07-29T23:45:07.572Z,97867.63
2022-07-29T23:47:34.955Z,97884.41
2022-07-29T23:50:02.209Z,97871.66
2022-07-29T23:52:29.649Z,97876.19
2022-07-29T23:55:37.809Z,97871.84
2022-07-29T23:57:45.508Z,97879.00
